Jacksonville, Florida
Current Conditions -  °F | °C
As of 10:56 AM on Sunday 25 Jan 2015 (Local Time) from KJAX Reporting Station
Few Clouds Few Clouds  
Wind Chill: 53°   Ceiling: Unl
Heat Index: 53°   Visibility: 10mi
Dew Point: 33°   Wind: 5mph
Humidity: 47%   Direction: 260°W
Pressure: 30.06"   Gusts: NA
Location:  30.32°N, 81.66°W
Report Text: KJAX 251556Z 26004KT 10SM FEW200 FEW250 12/01 A3006 RMK AO2 SLP180 T01170006 $
Loading
Personal Weather Stations






























Interactive Weather Map New forecast layout! Learn more

10-Day Weather Forecast

Advertisements
Track Severe Weather on mobile